Time;durP1;ratioP1;P1;durP2;ratioP2;P2;SDS_P1;SDS_P2;PMS_P1;PMS_P2;Temp;Humidity;BMP_temperature;BMP_pressure;BME280_temperature;BME280_humidity;BME280_pressure;Samples;Min_cycle;Max_cycle;Signal;HPM_P1;HPM_P2
2023/05/11 00:01:41;;;;;;;14.00;9.65;;;14.20;99.90;;;;;;4955373;28;20049;-70
2023/05/11 00:04:08;;;;;;;11.68;8.95;;;14.20;99.90;;;;;;4956974;28;20046;-69
2023/05/11 00:06:35;;;;;;;13.50;9.45;;;14.20;99.90;;;;;;4962279;28;20393;-70
2023/05/11 00:09:01;;;;;;;10.75;8.43;;;14.20;99.90;;;;;;4944520;28;20523;-70
2023/05/11 00:11:27;;;;;;;13.88;9.15;;;14.20;99.90;;;;;;4951954;28;20057;-69
2023/05/11 00:13:53;;;;;;;12.68;9.43;;;14.20;99.90;;;;;;4954449;28;20118;-70
2023/05/11 00:16:20;;;;;;;12.25;9.40;;;14.20;99.90;;;;;;4952300;28;20034;-69
2023/05/11 00:18:47;;;;;;;12.90;9.75;;;14.20;99.90;;;;;;4951356;28;20042;-69
2023/05/11 00:21:14;;;;;;;11.43;8.68;;;14.20;99.90;;;;;;4952294;28;20401;-70
2023/05/11 00:23:40;;;;;;;11.20;8.88;;;14.20;99.90;;;;;;4955040;28;20034;-70
2023/05/11 00:26:06;;;;;;;12.32;9.45;;;14.20;99.90;;;;;;4960664;28;20504;-70
2023/05/11 00:28:33;;;;;;;11.63;8.90;;;14.20;99.90;;;;;;4959864;28;20402;-70
2023/05/11 00:30:59;;;;;;;10.70;8.30;;;14.20;99.90;;;;;;4924231;28;20038;-69
2023/05/11 00:33:26;;;;;;;12.75;8.93;;;14.10;99.90;;;;;;4953056;28;20695;-70
2023/05/11 00:35:52;;;;;;;10.75;8.82;;;14.10;99.90;;;;;;4952704;28;20049;-69
2023/05/11 00:38:18;;;;;;;12.05;9.18;;;14.10;99.90;;;;;;4952180;28;20537;-70
2023/05/11 00:40:45;;;;;;;11.63;9.32;;;14.10;99.90;;;;;;4932953;28;20527;-69
2023/05/11 00:43:11;;;;;;;14.90;10.90;;;14.10;99.90;;;;;;4936206;28;20713;-69
2023/05/11 00:45:38;;;;;;;14.75;10.50;;;14.00;99.90;;;;;;4958368;28;20046;-70
2023/05/11 00:48:05;;;;;;;13.93;9.82;;;14.00;99.90;;;;;;4961760;28;20063;-70
2023/05/11 00:50:32;;;;;;;12.57;10.82;;;14.00;99.90;;;;;;4956276;28;20366;-70
2023/05/11 00:52:59;;;;;;;15.48;11.55;;;14.00;99.90;;;;;;4952661;28;20029;-69
2023/05/11 00:55:26;;;;;;;12.85;9.35;;;14.00;99.90;;;;;;4937782;28;20045;-70
2023/05/11 00:57:53;;;;;;;14.60;11.02;;;14.00;99.90;;;;;;4953588;28;20061;-70
2023/05/11 01:00:20;;;;;;;15.30;11.55;;;13.90;99.90;;;;;;4949913;28;20038;-69
2023/05/11 01:02:47;;;;;;;14.98;10.48;;;14.00;99.90;;;;;;4953079;28;20065;-70
2023/05/11 01:05:13;;;;;;;15.23;11.40;;;13.90;99.90;;;;;;4954069;28;20362;-70
2023/05/11 01:07:55;;;;;;;14.95;11.35;;;13.90;99.90;;;;;;4961592;28;20023;-70
2023/05/11 01:10:31;;;;;;;14.27;10.60;;;13.90;99.90;;;;;;4974618;28;20505;-70
2023/05/11 01:13:33;;;;;;;17.40;11.65;;;13.90;99.90;;;;;;4952974;28;20521;-70
2023/05/11 01:16:07;;;;;;;18.13;11.38;;;13.90;99.90;;;;;;4933105;28;20516;-70
2023/05/11 01:18:56;;;;;;;;;;;13.90;99.90;;;;;;4951935;28;20383;-68
2023/05/11 01:21:23;;;;;;;19.50;11.93;;;13.90;99.90;;;;;;4966269;28;19918;-69
2023/05/11 01:23:59;;;;;;;13.30;9.18;;;13.80;99.90;;;;;;4951321;28;20039;-70
2023/05/11 01:27:07;;;;;;;14.32;10.90;;;13.80;99.90;;;;;;4953948;28;20498;-69
2023/05/11 01:29:54;;;;;;;11.35;8.07;;;13.80;99.90;;;;;;4955234;28;20454;-70
2023/05/11 01:32:27;;;;;;;10.02;7.40;;;13.70;99.90;;;;;;4955903;28;20037;-70
2023/05/11 01:35:10;;;;;;;12.15;8.82;;;13.70;99.90;;;;;;4952221;28;20026;-70
2023/05/11 01:37:44;;;;;;;12.20;7.45;;;13.70;99.90;;;;;;4952004;28;20054;-71
2023/05/11 01:40:20;;;;;;;10.80;7.93;;;13.70;99.90;;;;;;4949749;28;20029;-72
2023/05/11 01:42:55;;;;;;;10.35;7.53;;;13.70;99.90;;;;;;4950650;28;20064;-72
2023/05/11 01:45:24;;;;;;;10.65;7.55;;;13.60;99.90;;;;;;4951605;28;20038;-72
2023/05/11 01:47:53;;;;;;;10.98;7.80;;;13.60;99.90;;;;;;4957244;28;20037;-73
2023/05/11 01:50:23;;;;;;;10.98;7.47;;;13.60;99.90;;;;;;4954436;28;20038;-72
2023/05/11 01:52:50;;;;;;;13.15;8.65;;;13.60;99.90;;;;;;4960635;28;20045;-73
2023/05/11 01:55:20;;;;;;;11.40;8.20;;;13.60;99.90;;;;;;4951689;28;20042;-73
2023/05/11 01:57:52;;;;;;;12.57;8.50;;;13.70;99.90;;;;;;4952852;28;20049;-72
2023/05/11 02:00:18;;;;;;;9.65;7.95;;;13.60;99.90;;;;;;4947996;28;20039;-72
2023/05/11 02:02:47;;;;;;;8.52;6.18;;;13.60;99.90;;;;;;4951939;28;20041;-73
2023/05/11 02:05:23;;;;;;;7.65;5.30;;;13.60;99.90;;;;;;4934093;28;20517;-73
2023/05/11 02:07:53;;;;;;;5.95;4.70;;;13.60;99.90;;;;;;4939425;28;20053;-73
2023/05/11 02:10:23;;;;;;;6.68;4.78;;;13.60;99.90;;;;;;4955268;28;20512;-73
2023/05/11 02:12:51;;;;;;;6.35;4.60;;;13.60;99.90;;;;;;4955609;28;20540;-73
2023/05/11 02:15:22;;;;;;;8.07;5.22;;;13.60;99.90;;;;;;4952786;28;20769;-73
2023/05/11 02:17:51;;;;;;;7.78;6.03;;;13.60;99.90;;;;;;4936194;28;20042;-73
2023/05/11 02:20:19;;;;;;;9.20;7.45;;;13.60;99.90;;;;;;4949695;28;20041;-73
2023/05/11 02:22:46;;;;;;;11.02;7.25;;;13.60;99.90;;;;;;4949350;28;20046;-73
2023/05/11 02:25:14;;;;;;;8.93;6.40;;;13.60;99.90;;;;;;4934906;28;21553;-73
2023/05/11 02:27:41;;;;;;;9.70;7.18;;;13.70;99.90;;;;;;4938643;28;20038;-74
2023/05/11 02:30:08;;;;;;;8.82;6.93;;;13.60;99.90;;;;;;4941759;28;20398;-72
2023/05/11 02:32:41;;;;;;;5.80;4.38;;;13.60;99.90;;;;;;4958368;28;20053;-73
2023/05/11 02:35:23;;;;;;;7.50;5.70;;;13.50;99.90;;;;;;4955175;28;20030;-73
2023/05/11 02:37:55;;;;;;;11.85;9.27;;;13.50;99.90;;;;;;4955064;28;20037;-73
2023/05/11 02:40:28;;;;;;;7.07;4.50;;;13.50;99.90;;;;;;4936432;28;20128;-73
2023/05/11 02:43:01;;;;;;;5.78;4.38;;;13.50;99.90;;;;;;4971358;28;20049;-73
2023/05/11 02:45:31;;;;;;;9.80;6.05;;;13.50;99.90;;;;;;4954451;28;20297;-73
2023/05/11 02:47:59;;;;;;;12.90;9.38;;;13.40;99.90;;;;;;4957549;28;20545;-73
2023/05/11 02:50:29;;;;;;;9.13;6.32;;;13.40;99.90;;;;;;4977368;28;20053;-73
2023/05/11 02:53:00;;;;;;;9.00;5.90;;;13.40;99.90;;;;;;4960202;28;20042;-73
2023/05/11 02:55:27;;;;;;;9.00;6.20;;;13.40;99.90;;;;;;4955727;28;20042;-72
2023/05/11 02:57:54;;;;;;;11.13;7.68;;;13.30;99.90;;;;;;4955033;28;20057;-72
2023/05/11 03:00:21;;;;;;;9.02;6.93;;;13.30;99.90;;;;;;4966767;28;20374;-72
2023/05/11 03:02:48;;;;;;;10.48;7.78;;;13.30;99.90;;;;;;4922941;28;20519;-73
2023/05/11 03:05:18;;;;;;;10.23;7.53;;;13.30;99.90;;;;;;4936496;28;20236;-72
2023/05/11 03:07:46;;;;;;;12.07;8.57;;;13.20;99.90;;;;;;4953087;28;20038;-72
2023/05/11 03:10:13;;;;;;;10.80;7.70;;;13.20;99.90;;;;;;4976464;28;20027;-72
2023/05/11 03:12:43;;;;;;;12.57;9.00;;;13.20;99.90;;;;;;4961421;28;20059;-72
2023/05/11 03:15:11;;;;;;;13.80;9.25;;;13.10;99.90;;;;;;4961238;28;20033;-72
2023/05/11 03:17:39;;;;;;;13.18;10.02;;;13.10;99.90;;;;;;4954038;28;20049;-72
2023/05/11 03:20:08;;;;;;;15.38;10.98;;;13.00;99.90;;;;;;4949675;28;20045;-72
2023/05/11 03:22:36;;;;;;;14.25;9.45;;;13.00;99.90;;;;;;4937208;28;20030;-72
2023/05/11 03:25:04;;;;;;;15.55;10.32;;;13.00;99.90;;;;;;4936727;28;20058;-72
2023/05/11 03:27:34;;;;;;;16.52;11.57;;;13.00;99.90;;;;;;4953674;28;20038;-72
2023/05/11 03:30:04;;;;;;;16.98;12.05;;;13.00;99.90;;;;;;4955999;28;20041;-72
2023/05/11 03:32:36;;;;;;;16.55;12.10;;;13.00;99.90;;;;;;4977317;28;20037;-71
2023/05/11 03:35:02;;;;;;;16.77;11.95;;;13.00;99.90;;;;;;4962483;28;20026;-71
2023/05/11 03:37:31;;;;;;;15.40;11.50;;;13.00;99.90;;;;;;4953572;28;20035;-71
2023/05/11 03:39:59;;;;;;;21.45;14.75;;;13.00;99.90;;;;;;4946151;28;20027;-72
2023/05/11 03:42:31;;;;;;;22.48;14.15;;;13.00;99.90;;;;;;4951944;28;20049;-72
2023/05/11 03:44:59;;;;;;;22.30;14.52;;;13.00;99.90;;;;;;4954755;28;20042;-72
2023/05/11 03:47:27;;;;;;;21.58;14.40;;;13.00;99.90;;;;;;4968699;28;20038;-72
2023/05/11 03:49:55;;;;;;;25.55;15.18;;;13.00;99.90;;;;;;4938873;28;20070;-72
2023/05/11 03:52:24;;;;;;;20.65;14.15;;;13.10;99.90;;;;;;4977884;28;20042;-72
2023/05/11 03:54:50;;;;;;;27.42;17.05;;;13.10;99.90;;;;;;4962083;28;20034;-72
2023/05/11 03:57:17;;;;;;;22.10;14.27;;;13.10;99.90;;;;;;4968248;28;20045;-72
2023/05/11 03:59:45;;;;;;;21.65;14.73;;;13.10;99.90;;;;;;4946464;28;20517;-72
2023/05/11 04:02:11;;;;;;;23.88;14.75;;;13.10;99.90;;;;;;4950559;28;20046;-72
2023/05/11 04:04:38;;;;;;;28.45;16.40;;;13.10;99.90;;;;;;4935643;28;20026;-72
2023/05/11 04:07:04;;;;;;;26.77;17.50;;;13.10;99.90;;;;;;4968137;28;20959;-72
2023/05/11 04:09:30;;;;;;;24.05;14.82;;;13.20;99.90;;;;;;4971790;28;20668;-72
2023/05/11 04:11:57;;;;;;;23.52;17.13;;;13.20;99.90;;;;;;4960160;28;20104;-72
2023/05/11 04:14:23;;;;;;;32.50;16.45;;;13.20;99.90;;;;;;4978984;28;20033;-71
2023/05/11 04:16:49;;;;;;;17.90;12.55;;;13.20;99.90;;;;;;4953148;28;20030;-71
2023/05/11 04:19:16;;;;;;;17.98;13.98;;;13.20;99.90;;;;;;4933868;28;20418;-71
2023/05/11 04:21:42;;;;;;;20.08;14.45;;;13.20;99.90;;;;;;4967985;28;20738;-71
2023/05/11 04:24:08;;;;;;;21.88;13.65;;;13.20;99.90;;;;;;4956514;28;20058;-72
2023/05/11 04:26:35;;;;;;;21.02;13.88;;;13.20;99.90;;;;;;4937434;28;20039;-71
2023/05/11 04:29:01;;;;;;;19.77;13.48;;;13.20;99.90;;;;;;4950305;28;20043;-71
2023/05/11 04:31:29;;;;;;;19.45;12.10;;;13.20;99.90;;;;;;4941876;28;20034;-71
2023/05/11 04:33:55;;;;;;;24.63;14.75;;;13.20;99.90;;;;;;4962562;28;20539;-71
2023/05/11 04:36:22;;;;;;;24.17;15.13;;;13.30;99.90;;;;;;4958569;28;20045;-71
2023/05/11 04:38:48;;;;;;;23.05;13.88;;;13.30;99.90;;;;;;4952436;28;20041;-71
2023/05/11 04:41:15;;;;;;;23.90;14.02;;;13.30;99.90;;;;;;4966543;28;20026;-71
2023/05/11 04:43:42;;;;;;;19.85;13.32;;;13.30;99.90;;;;;;4954003;28;20041;-71
2023/05/11 04:46:09;;;;;;;26.38;15.63;;;13.30;99.90;;;;;;4953352;28;20045;-71
2023/05/11 04:48:36;;;;;;;23.08;14.52;;;13.30;99.90;;;;;;4953945;28;20038;-71
2023/05/11 04:51:04;;;;;;;22.42;14.75;;;13.30;99.90;;;;;;4953580;28;20045;-71
2023/05/11 04:53:32;;;;;;;21.77;14.50;;;13.30;99.90;;;;;;4961270;28;20034;-71
2023/05/11 04:55:58;;;;;;;25.10;15.02;;;13.40;99.90;;;;;;4958205;28;20045;-71
2023/05/11 04:58:24;;;;;;;23.08;14.98;;;13.40;99.90;;;;;;4950694;28;20035;-71
2023/05/11 05:00:51;;;;;;;22.73;14.77;;;13.40;99.90;;;;;;4947457;28;20144;-72
2023/05/11 05:03:18;;;;;;;24.98;15.55;;;13.40;99.90;;;;;;4954850;28;20042;-71
2023/05/11 05:05:45;;;;;;;26.83;15.70;;;13.50;99.90;;;;;;4936670;28;20515;-72
2023/05/11 05:08:11;;;;;;;26.95;16.38;;;13.40;99.90;;;;;;4954783;28;20049;-72
2023/05/11 05:10:37;;;;;;;29.65;18.17;;;13.50;99.90;;;;;;4953694;28;20037;-73
2023/05/11 05:13:04;;;;;;;27.92;18.23;;;13.50;99.90;;;;;;4946736;28;20065;-73
2023/05/11 05:15:30;;;;;;;35.38;21.10;;;13.50;99.90;;;;;;4960373;28;20421;-72
2023/05/11 05:17:57;;;;;;;31.67;20.05;;;13.60;99.90;;;;;;4935546;28;20088;-73
2023/05/11 05:20:24;;;;;;;31.25;18.35;;;13.60;99.90;;;;;;4947197;28;20041;-72
2023/05/11 05:22:50;;;;;;;30.10;18.17;;;13.60;99.90;;;;;;4952818;28;20136;-74
2023/05/11 05:25:17;;;;;;;26.42;16.67;;;13.60;99.90;;;;;;4951569;28;20405;-73
2023/05/11 05:27:43;;;;;;;28.27;17.52;;;13.50;99.90;;;;;;4953400;28;21346;-74
2023/05/11 05:30:16;;;;;;;26.75;17.48;;;13.50;99.90;;;;;;4951893;28;20038;-75
2023/05/11 05:32:42;;;;;;;24.58;15.95;;;13.50;99.90;;;;;;4961494;28;20042;-75
2023/05/11 05:35:09;;;;;;;25.35;15.45;;;13.40;99.90;;;;;;4973357;28;20890;-75
2023/05/11 05:37:36;;;;;;;23.83;15.75;;;13.40;99.90;;;;;;4956787;28;20929;-74
2023/05/11 05:40:04;;;;;;;21.25;14.07;;;13.40;99.90;;;;;;4932198;28;20046;-75
2023/05/11 05:42:33;;;;;;;30.08;19.40;;;13.30;99.90;;;;;;4936459;28;20034;-75
2023/05/11 05:44:59;;;;;;;28.45;17.42;;;13.40;99.90;;;;;;4952551;28;20457;-75
2023/05/11 05:47:26;;;;;;;23.60;15.57;;;13.30;99.90;;;;;;4969378;28;20514;-74
2023/05/11 05:49:53;;;;;;;27.95;16.95;;;13.30;99.90;;;;;;4946787;28;20771;-76
2023/05/11 05:52:19;;;;;;;23.23;14.85;;;13.30;99.90;;;;;;4956655;28;20030;-75
2023/05/11 05:54:47;;;;;;;24.23;14.80;;;13.20;99.90;;;;;;4945530;28;20555;-74
2023/05/11 05:57:14;;;;;;;23.58;14.82;;;13.20;99.90;;;;;;4959553;28;20042;-75
2023/05/11 05:59:40;;;;;;;22.08;15.35;;;13.20;99.90;;;;;;4944775;28;20039;-75
2023/05/11 06:02:08;;;;;;;22.17;14.13;;;13.20;99.90;;;;;;4969076;28;20469;-74
2023/05/11 06:04:34;;;;;;;21.08;13.13;;;13.20;99.90;;;;;;4968454;28;20045;-74
2023/05/11 06:07:01;;;;;;;21.70;13.15;;;13.30;99.90;;;;;;4952289;28;20560;-74
2023/05/11 06:09:27;;;;;;;18.45;11.77;;;13.30;99.90;;;;;;4966285;28;20073;-74
2023/05/11 06:11:53;;;;;;;21.45;12.90;;;13.40;99.90;;;;;;4957407;28;20057;-74
2023/05/11 06:14:24;;;;;;;17.13;10.90;;;13.40;99.90;;;;;;4947847;28;20061;-74
2023/05/11 06:16:52;;;;;;;15.75;9.52;;;13.40;99.90;;;;;;4949696;28;20121;-74
2023/05/11 06:19:20;;;;;;;17.13;9.93;;;13.40;99.90;;;;;;4950358;28;20046;-74
2023/05/11 06:21:47;;;;;;;16.63;10.05;;;13.50;99.90;;;;;;4954352;28;20038;-74
2023/05/11 06:24:14;;;;;;;15.40;8.95;;;13.50;99.90;;;;;;4973127;28;20038;-74
2023/05/11 06:26:43;;;;;;;19.55;10.55;;;13.60;99.90;;;;;;4955926;28;20038;-74
2023/05/11 06:29:10;;;;;;;16.48;9.40;;;13.60;99.90;;;;;;4948457;28;20030;-74
2023/05/11 06:31:37;;;;;;;14.80;9.48;;;13.60;99.90;;;;;;4960381;28;20053;-74
2023/05/11 06:34:04;;;;;;;13.48;8.15;;;13.70;99.90;;;;;;4964281;28;20030;-73
2023/05/11 06:36:33;;;;;;;14.15;8.48;;;13.70;99.90;;;;;;4965234;28;20038;-73
2023/05/11 06:38:59;;;;;;;12.45;7.20;;;13.80;99.90;;;;;;4937548;28;21184;-73
2023/05/11 06:41:26;;;;;;;20.13;9.30;;;13.90;99.90;;;;;;4953144;28;20047;-73
2023/05/11 06:43:52;;;;;;;17.88;9.77;;;14.00;99.90;;;;;;4957420;28;20048;-73
2023/05/11 06:46:27;;;;;;;15.50;9.35;;;14.00;99.90;;;;;;4942317;28;20389;-73
2023/05/11 06:48:54;;;;;;;18.60;10.23;;;14.20;99.90;;;;;;4953466;28;20064;-73
2023/05/11 06:51:20;;;;;;;18.42;10.45;;;14.30;99.90;;;;;;4940735;28;20050;-73
2023/05/11 06:53:47;;;;;;;21.20;11.32;;;14.50;99.90;;;;;;4963665;28;20034;-73
2023/05/11 06:56:13;;;;;;;17.85;10.38;;;14.60;99.90;;;;;;4963389;28;20129;-73
2023/05/11 06:58:41;;;;;;;18.77;11.50;;;14.70;99.90;;;;;;4956493;28;20038;-73
2023/05/11 07:01:07;;;;;;;18.10;10.68;;;14.70;99.90;;;;;;4969271;28;20486;-73
2023/05/11 07:03:34;;;;;;;16.80;10.55;;;14.80;99.90;;;;;;4957196;28;20409;-73
2023/05/11 07:06:01;;;;;;;17.73;11.27;;;14.80;99.90;;;;;;4956087;28;20034;-73
2023/05/11 07:08:27;;;;;;;17.38;10.98;;;14.90;99.90;;;;;;4969901;28;20473;-73
2023/05/11 07:10:54;;;;;;;18.85;11.63;;;14.90;99.90;;;;;;4946969;28;20033;-73
2023/05/11 07:13:21;;;;;;;18.20;10.68;;;15.00;99.90;;;;;;4961627;28;20043;-73
2023/05/11 07:15:48;;;;;;;22.42;12.18;;;15.00;99.90;;;;;;4964029;28;20042;-73
2023/05/11 07:18:15;;;;;;;20.10;12.23;;;15.10;99.90;;;;;;4960799;28;20639;-73
2023/05/11 07:20:42;;;;;;;19.58;11.60;;;15.20;99.90;;;;;;4947285;28;20042;-73
2023/05/11 07:23:08;;;;;;;24.75;14.35;;;15.30;99.90;;;;;;4956669;28;20038;-73
2023/05/11 07:25:35;;;;;;;21.77;13.10;;;15.40;99.90;;;;;;4954226;28;20046;-73
2023/05/11 07:28:02;;;;;;;24.73;16.17;;;15.40;99.90;;;;;;4955086;28;20489;-73
2023/05/11 07:30:28;;;;;;;22.40;13.95;;;15.50;99.90;;;;;;4964646;28;20053;-73
2023/05/11 07:32:54;;;;;;;22.67;14.68;;;15.50;99.90;;;;;;4960458;28;20549;-73
2023/05/11 07:35:21;;;;;;;25.38;15.75;;;15.50;99.90;;;;;;4963604;28;20042;-73
2023/05/11 07:37:47;;;;;;;27.63;16.85;;;15.60;99.90;;;;;;4955182;28;20041;-73
2023/05/11 07:40:14;;;;;;;33.28;20.45;;;15.70;99.90;;;;;;4941830;28;20049;-73
2023/05/11 07:42:40;;;;;;;32.15;19.15;;;15.80;99.90;;;;;;4922939;28;21655;-73
2023/05/11 07:45:07;;;;;;;32.88;20.58;;;15.90;99.90;;;;;;4952634;28;20046;-73
2023/05/11 07:47:33;;;;;;;30.92;20.75;;;16.00;99.90;;;;;;4953545;28;20037;-73
2023/05/11 07:49:59;;;;;;;28.35;19.88;;;16.00;99.90;;;;;;4945940;28;20034;-73
2023/05/11 07:52:25;;;;;;;28.90;20.05;;;16.10;99.90;;;;;;4954732;28;20038;-73
2023/05/11 07:54:52;;;;;;;26.90;18.85;;;16.10;99.90;;;;;;4962860;28;20041;-73
2023/05/11 07:57:18;;;;;;;29.88;19.92;;;16.10;99.90;;;;;;4959415;28;20041;-73
2023/05/11 07:59:45;;;;;;;28.17;19.40;;;16.20;99.90;;;;;;4948824;28;20030;-73
2023/05/11 08:02:11;;;;;;;30.42;20.52;;;16.20;99.90;;;;;;4952204;28;20752;-73
2023/05/11 08:04:38;;;;;;;26.95;18.25;;;16.30;99.90;;;;;;4955656;28;20034;-73
2023/05/11 08:07:04;;;;;;;21.95;15.90;;;16.40;99.90;;;;;;4937508;28;20045;-74
2023/05/11 08:09:31;;;;;;;26.67;18.75;;;16.40;99.90;;;;;;4949474;28;20034;-74
2023/05/11 08:12:00;;;;;;;26.63;19.42;;;16.40;99.90;;;;;;4952647;28;20548;-74
2023/05/11 08:14:27;;;;;;;28.30;20.58;;;16.40;99.90;;;;;;4944915;28;20034;-73
2023/05/11 08:16:53;;;;;;;31.25;22.10;;;16.40;99.90;;;;;;4944177;28;20085;-74
2023/05/11 08:19:19;;;;;;;34.75;25.20;;;16.40;99.90;;;;;;4951571;28;20054;-73
2023/05/11 08:21:45;;;;;;;35.63;25.88;;;16.30;99.90;;;;;;4954547;28;20925;-74
2023/05/11 08:24:12;;;;;;;37.50;27.27;;;16.40;99.90;;;;;;4955362;28;20038;-74
2023/05/11 08:26:38;;;;;;;43.55;32.55;;;16.50;99.90;;;;;;4953657;28;20480;-74
2023/05/11 08:29:04;;;;;;;41.92;31.60;;;16.50;99.90;;;;;;4962898;28;20061;-74
2023/05/11 08:31:31;;;;;;;40.75;30.65;;;16.50;99.90;;;;;;4949417;28;20038;-74
2023/05/11 08:33:57;;;;;;;39.40;29.92;;;16.40;99.90;;;;;;4962194;28;20031;-74
2023/05/11 08:36:23;;;;;;;47.28;36.55;;;16.30;99.90;;;;;;4961481;28;20485;-74
2023/05/11 08:38:49;;;;;;;41.50;30.63;;;16.20;99.90;;;;;;4954194;28;20050;-75
2023/05/11 08:41:16;;;;;;;44.97;32.35;;;16.10;99.90;;;;;;4947895;28;20508;-76
2023/05/11 08:43:44;;;;;;;38.05;28.15;;;16.10;99.90;;;;;;4969448;28;20490;-75
2023/05/11 08:46:15;;;;;;;40.60;30.55;;;16.10;99.90;;;;;;4954183;28;20038;-74
2023/05/11 08:48:42;;;;;;;41.75;31.50;;;16.10;99.90;;;;;;4949305;28;20026;-74
2023/05/11 08:51:09;;;;;;;42.20;30.00;;;16.10;99.90;;;;;;4946443;28;20042;-74
2023/05/11 08:53:35;;;;;;;46.20;32.55;;;16.20;99.90;;;;;;4960630;28;20045;-74
2023/05/11 08:56:05;;;;;;;45.15;32.72;;;16.20;99.90;;;;;;4962129;28;22911;-74
2023/05/11 08:58:36;;;;;;;44.85;32.15;;;16.30;99.90;;;;;;4960977;28;20474;-74
2023/05/11 09:01:04;;;;;;;43.15;31.27;;;16.50;99.90;;;;;;4943056;28;20536;-74
2023/05/11 09:03:33;;;;;;;45.72;32.80;;;16.70;99.90;;;;;;4938906;28;20515;-74
2023/05/11 09:06:01;;;;;;;39.22;29.52;;;17.00;99.90;;;;;;4936652;28;20042;-74
2023/05/11 09:08:30;;;;;;;43.22;34.28;;;17.30;99.90;;;;;;4953756;28;20041;-74
2023/05/11 09:10:58;;;;;;;39.63;30.35;;;17.40;99.90;;;;;;4944624;28;20049;-74
2023/05/11 09:13:24;;;;;;;40.72;31.20;;;17.50;99.90;;;;;;4957012;28;20054;-75
2023/05/11 09:15:50;;;;;;;34.53;28.48;;;17.50;99.90;;;;;;4962338;28;20037;-74
2023/05/11 09:18:17;;;;;;;35.15;27.00;;;17.60;99.90;;;;;;4945398;28;20061;-74
2023/05/11 09:20:43;;;;;;;30.15;25.85;;;17.80;99.90;;;;;;4964254;28;20429;-74
2023/05/11 09:23:09;;;;;;;32.90;27.23;;;17.80;99.90;;;;;;4952031;28;20065;-74
2023/05/11 09:25:38;;;;;;;30.50;25.23;;;17.70;99.90;;;;;;4952624;28;20026;-74
2023/05/11 09:28:04;;;;;;;25.63;22.77;;;17.70;99.90;;;;;;4953713;28;20037;-74
2023/05/11 09:30:32;;;;;;;28.17;24.15;;;17.60;99.90;;;;;;4943853;28;20031;-75
2023/05/11 09:33:01;;;;;;;26.33;22.17;;;17.50;99.90;;;;;;4953631;28;20053;-74
2023/05/11 09:35:28;;;;;;;29.25;25.48;;;17.40;99.90;;;;;;4960820;28;20493;-74
2023/05/11 09:38:10;;;;;;;27.15;23.35;;;17.40;99.90;;;;;;4961191;28;20046;-74
2023/05/11 09:40:37;;;;;;;26.85;21.98;;;17.40;99.90;;;;;;4947106;28;20038;-74
2023/05/11 09:43:15;;;;;;;35.25;28.38;;;17.40;99.90;;;;;;4950746;28;20521;-74
2023/05/11 09:45:43;;;;;;;28.90;22.52;;;17.30;99.90;;;;;;4951513;28;20130;-74
2023/05/11 09:48:15;;;;;;;28.23;22.85;;;17.20;99.90;;;;;;4953441;28;20100;-75
2023/05/11 09:50:42;;;;;;;29.63;23.38;;;17.10;99.90;;;;;;4928983;28;20397;-74
2023/05/11 09:53:08;;;;;;;26.98;22.73;;;17.00;99.90;;;;;;4936623;28;20034;-74
2023/05/11 09:55:35;;;;;;;23.73;20.15;;;16.90;99.90;;;;;;4961757;28;20026;-74
2023/05/11 09:58:02;;;;;;;27.17;22.42;;;16.90;99.90;;;;;;4961736;28;20046;-73
2023/05/11 10:00:28;;;;;;;20.55;17.92;;;16.90;99.90;;;;;;4945112;28;20061;-73
2023/05/11 10:03:05;;;;;;;24.67;22.05;;;16.90;99.90;;;;;;4951436;28;20036;-73
2023/05/11 10:05:34;;;;;;;25.50;21.63;;;16.90;99.90;;;;;;4953867;28;20520;-73
2023/05/11 10:08:02;;;;;;;21.75;19.42;;;16.90;99.90;;;;;;4953328;28;20034;-73
2023/05/11 10:10:32;;;;;;;21.45;17.88;;;17.00;99.90;;;;;;4941118;28;20527;-73
2023/05/11 10:13:00;;;;;;;19.48;17.08;;;17.00;99.90;;;;;;4970811;28;20038;-74
2023/05/11 10:15:29;;;;;;;20.83;17.63;;;17.20;99.90;;;;;;4959768;28;20053;-74
2023/05/11 10:17:57;;;;;;;20.75;17.88;;;17.30;99.90;;;;;;4960507;28;20046;-75
2023/05/11 10:20:26;;;;;;;20.92;18.48;;;17.40;99.90;;;;;;4944708;28;20042;-74
2023/05/11 10:22:54;;;;;;;22.20;18.83;;;17.60;99.90;;;;;;4948512;28;20039;-74
2023/05/11 10:25:22;;;;;;;18.95;16.65;;;17.70;99.90;;;;;;4948661;28;20702;-74
2023/05/11 10:27:49;;;;;;;22.50;17.45;;;17.90;99.90;;;;;;4937473;28;20507;-74
2023/05/11 10:30:16;;;;;;;17.08;15.27;;;18.10;99.90;;;;;;4960310;28;20044;-74
2023/05/11 10:32:44;;;;;;;16.33;14.55;;;18.30;99.90;;;;;;4949891;28;20041;-74
2023/05/11 10:35:11;;;;;;;17.75;15.23;;;18.60;99.90;;;;;;4958846;28;20037;-74
2023/05/11 10:37:39;;;;;;;18.10;15.77;;;18.80;99.90;;;;;;4945785;28;20387;-73
2023/05/11 10:40:07;;;;;;;15.68;14.02;;;19.00;99.90;;;;;;4931132;28;20038;-73
2023/05/11 10:43:07;;;;;;;14.30;12.82;;;19.30;99.90;;;;;;4933335;28;21064;-74
2023/05/11 10:45:45;;;;;;;15.30;13.70;;;19.40;99.90;;;;;;4950940;28;20038;-74
2023/05/11 10:48:24;;;;;;;15.85;14.35;;;19.70;99.90;;;;;;4954072;28;21036;-75
2023/05/11 10:51:18;;;;;;;15.23;13.63;;;19.90;99.90;;;;;;4943428;28;20699;-74
2023/05/11 10:53:53;;;;;;;14.05;12.55;;;20.20;99.90;;;;;;4955154;28;20042;-74
2023/05/11 10:56:43;;;;;;;16.42;14.73;;;20.50;99.90;;;;;;4965751;28;20153;-74
2023/05/11 10:59:31;;;;;;;15.05;13.55;;;20.60;99.90;;;;;;4959998;28;20046;-75
2023/05/11 11:02:00;;;;;;;15.98;14.30;;;20.90;99.90;;;;;;4939350;28;20684;-74
2023/05/11 11:04:44;;;;;;;13.20;11.57;;;20.90;99.90;;;;;;4954121;28;20523;-75
2023/05/11 11:07:16;;;;;;;15.32;13.50;;;20.90;99.90;;;;;;4954835;28;20332;-75
2023/05/11 11:09:55;;;;;;;13.48;12.05;;;20.90;99.90;;;;;;4946288;28;20038;-75
2023/05/11 11:12:28;;;;;;;13.93;12.52;;;20.80;99.90;;;;;;4969525;28;20046;-76
2023/05/11 11:14:54;;;;;;;17.77;15.98;;;20.70;99.90;;;;;;4960770;28;20520;-76
2023/05/11 11:17:24;;;;;;;14.40;12.90;;;20.70;99.90;;;;;;4962913;28;20206;-76
2023/05/11 11:19:50;;;;;;;12.68;11.30;;;20.60;99.90;;;;;;4957144;28;20022;-76
2023/05/11 11:22:35;;;;;;;10.95;9.73;;;20.50;99.90;;;;;;4956629;28;20044;-74
2023/05/11 11:25:04;;;;;;;13.73;12.43;;;20.50;99.90;;;;;;4955990;28;20034;-75
2023/05/11 11:27:40;;;;;;;21.27;18.58;;;20.30;99.90;;;;;;4954334;28;20038;-74
2023/05/11 11:30:16;;;;;;;31.75;25.85;;;20.10;99.90;;;;;;4931468;28;20045;-77
2023/05/11 11:32:42;;;;;;;24.05;21.45;;;19.80;99.90;;;;;;4953248;28;20038;-77
2023/05/11 11:35:40;;;;;;;23.70;21.08;;;19.50;99.90;;;;;;4959587;28;20053;-77
2023/05/11 11:38:11;;;;;;;24.50;21.90;;;19.20;99.90;;;;;;4963098;28;20042;-77
2023/05/11 11:40:50;;;;;;;20.27;17.95;;;18.90;99.90;;;;;;4972612;28;20038;-76
2023/05/11 11:43:20;;;;;;;22.80;20.42;;;18.70;99.90;;;;;;4953263;28;20156;-76
2023/05/11 11:45:59;;;;;;;22.13;18.98;;;18.40;99.90;;;;;;4954675;28;20038;-75
2023/05/11 11:48:36;;;;;;;22.33;19.90;;;18.20;99.90;;;;;;4953696;28;20034;-75
2023/05/11 11:51:12;;;;;;;19.13;16.38;;;18.00;99.90;;;;;;4944925;28;20030;-76
2023/05/11 11:53:43;;;;;;;19.52;16.23;;;17.90;99.90;;;;;;4935146;28;20403;-74
2023/05/11 11:56:15;;;;;;;17.73;15.48;;;17.70;99.90;;;;;;4968951;28;20033;-74
2023/05/11 11:58:42;;;;;;;18.58;15.80;;;17.60;99.90;;;;;;4944123;28;20049;-74
2023/05/11 12:01:09;;;;;;;13.38;11.93;;;17.40;99.90;;;;;;4933398;28;20512;-74
2023/05/11 12:03:36;;;;;;;14.20;12.75;;;17.40;99.90;;;;;;4952906;28;20041;-74
2023/05/11 12:06:05;;;;;;;14.63;13.13;;;17.30;99.90;;;;;;4953126;28;20033;-74
2023/05/11 12:08:31;;;;;;;15.68;14.07;;;17.20;99.90;;;;;;4955588;28;20495;-75
2023/05/11 12:10:58;;;;;;;15.00;13.43;;;17.10;99.90;;;;;;4957071;28;20043;-74
2023/05/11 12:13:25;;;;;;;13.57;12.18;;;17.00;99.90;;;;;;4953622;28;20046;-73
2023/05/11 12:16:11;;;;;;;14.82;13.23;;;16.90;99.90;;;;;;4941861;28;20145;-73
2023/05/11 12:18:38;;;;;;;15.02;12.70;;;16.80;99.90;;;;;;4957145;28;20240;-72
2023/05/11 12:21:05;;;;;;;17.85;15.95;;;16.80;99.90;;;;;;4949800;28;20034;-73
2023/05/11 12:23:31;;;;;;;15.60;14.00;;;16.90;99.90;;;;;;4953045;28;20030;-73
2023/05/11 12:26:05;;;;;;;15.32;13.60;;;16.90;99.90;;;;;;4953860;28;20041;-73
2023/05/11 12:28:32;;;;;;;13.82;12.27;;;16.90;99.90;;;;;;4952380;28;21125;-72
2023/05/11 12:30:58;;;;;;;14.88;12.88;;;16.90;99.90;;;;;;4962330;28;20040;-73
2023/05/11 12:33:25;;;;;;;13.48;12.02;;;16.90;99.90;;;;;;4969461;28;20157;-73
2023/05/11 12:35:52;;;;;;;18.73;16.67;;;17.00;99.90;;;;;;4958484;28;20039;-73
2023/05/11 12:38:19;;;;;;;15.85;13.93;;;17.20;99.90;;;;;;4960624;28;20042;-72
2023/05/11 12:40:50;;;;;;;13.73;12.32;;;17.20;99.90;;;;;;4953861;28;20045;-74